Terminal Aerodrome Forecast
Issued by NWS Lake Charles, LA

Home | Current Version | Previous Version | Text Only | Print | Product List | Glossary On
Versions: 1 2 3 4 5 6 7 8 9 10 11 12 13 14 15 16 17 18 19 20
000
FTUS44 KLCH 272014 AAB
TAFLCH
TAF AMD
KLCH 272014Z 2720/2818 07008KT P6SM SCT020 BKN040
     FM272200 07008KT P6SM VCTS SCT020CB BKN040
      TEMPO 2722/2802 2SM TSRA SCT020CB BKN040
     FM280300 04003KT P6SM BKN250=

USA.gov is the U.S. government's official web portal to all federal, state and local government web resources and services.